sensor_id;sensor_type;location;lat;lon;timestamp;temperature;humidity
11284;DHT22;5698;47.332;11.180;2023-03-14T00:00:55;4.60;99.90
11284;DHT22;5698;47.332;11.180;2023-03-14T00:03:24;4.60;99.90
11284;DHT22;5698;47.332;11.180;2023-03-14T00:05:51;4.60;99.90
11284;DHT22;5698;47.332;11.180;2023-03-14T00:08:17;4.60;99.90
11284;DHT22;5698;47.332;11.180;2023-03-14T00:10:46;4.60;99.90
11284;DHT22;5698;47.332;11.180;2023-03-14T00:13:13;4.70;99.90
11284;DHT22;5698;47.332;11.180;2023-03-14T00:15:40;4.70;99.90
11284;DHT22;5698;47.332;11.180;2023-03-14T00:18:07;4.60;99.90
11284;DHT22;5698;47.332;11.180;2023-03-14T00:20:36;4.60;99.90
11284;DHT22;5698;47.332;11.180;2023-03-14T00:23:03;4.60;99.90
11284;DHT22;5698;47.332;11.180;2023-03-14T00:25:30;4.50;99.90
11284;DHT22;5698;47.332;11.180;2023-03-14T00:27:57;4.60;99.90
11284;DHT22;5698;47.332;11.180;2023-03-14T00:30:23;4.50;99.90
11284;DHT22;5698;47.332;11.180;2023-03-14T00:32:50;4.40;99.90
11284;DHT22;5698;47.332;11.180;2023-03-14T00:35:17;4.40;99.90
11284;DHT22;5698;47.332;11.180;2023-03-14T00:37:46;4.30;99.90
11284;DHT22;5698;47.332;11.180;2023-03-14T00:40:13;4.30;99.90
11284;DHT22;5698;47.332;11.180;2023-03-14T00:42:40;4.30;99.90
11284;DHT22;5698;47.332;11.180;2023-03-14T00:45:08;4.30;99.90
11284;DHT22;5698;47.332;11.180;2023-03-14T00:47:35;4.30;99.90
11284;DHT22;5698;47.332;11.180;2023-03-14T00:50:03;4.30;99.90
11284;DHT22;5698;47.332;11.180;2023-03-14T00:52:30;4.40;99.90
11284;DHT22;5698;47.332;11.180;2023-03-14T00:54:58;4.40;99.90
11284;DHT22;5698;47.332;11.180;2023-03-14T00:57:25;4.50;99.90
11284;DHT22;5698;47.332;11.180;2023-03-14T00:59:52;4.50;99.90
11284;DHT22;5698;47.332;11.180;2023-03-14T01:02:19;4.50;99.90
11284;DHT22;5698;47.332;11.180;2023-03-14T01:04:47;4.50;99.90
11284;DHT22;5698;47.332;11.180;2023-03-14T01:07:14;4.50;99.90
11284;DHT22;5698;47.332;11.180;2023-03-14T01:09:41;4.50;99.90
11284;DHT22;5698;47.332;11.180;2023-03-14T01:12:10;4.50;99.90
11284;DHT22;5698;47.332;11.180;2023-03-14T01:14:37;4.60;99.90
11284;DHT22;5698;47.332;11.180;2023-03-14T01:17:04;4.60;99.90
11284;DHT22;5698;47.332;11.180;2023-03-14T01:19:32;4.60;99.90
11284;DHT22;5698;47.332;11.180;2023-03-14T01:21:59;4.70;99.90
11284;DHT22;5698;47.332;11.180;2023-03-14T01:24:26;4.70;99.90
11284;DHT22;5698;47.332;11.180;2023-03-14T01:26:53;4.70;99.90
11284;DHT22;5698;47.332;11.180;2023-03-14T01:29:21;4.80;99.90
11284;DHT22;5698;47.332;11.180;2023-03-14T01:31:48;4.70;99.90
11284;DHT22;5698;47.332;11.180;2023-03-14T01:34:15;4.70;99.90
11284;DHT22;5698;47.332;11.180;2023-03-14T01:36:42;4.70;99.90
11284;DHT22;5698;47.332;11.180;2023-03-14T01:39:09;4.70;99.90
11284;DHT22;5698;47.332;11.180;2023-03-14T01:41:36;4.80;99.90
11284;DHT22;5698;47.332;11.180;2023-03-14T01:44:03;4.80;99.90
11284;DHT22;5698;47.332;11.180;2023-03-14T01:46:40;4.80;99.90
11284;DHT22;5698;47.332;11.180;2023-03-14T01:49:11;4.80;99.90
11284;DHT22;5698;47.332;11.180;2023-03-14T01:51:44;4.70;99.90
11284;DHT22;5698;47.332;11.180;2023-03-14T01:54:17;4.70;99.90
11284;DHT22;5698;47.332;11.180;2023-03-14T01:56:48;4.80;99.90
11284;DHT22;5698;47.332;11.180;2023-03-14T01:59:16;4.80;99.90
11284;DHT22;5698;47.332;11.180;2023-03-14T02:01:47;4.80;99.90
11284;DHT22;5698;47.332;11.180;2023-03-14T02:04:17;4.90;99.90
11284;DHT22;5698;47.332;11.180;2023-03-14T02:06:49;4.90;99.90
11284;DHT22;5698;47.332;11.180;2023-03-14T02:09:17;4.90;99.90
11284;DHT22;5698;47.332;11.180;2023-03-14T02:11:45;4.90;99.90
11284;DHT22;5698;47.332;11.180;2023-03-14T02:14:19;4.80;99.90
11284;DHT22;5698;47.332;11.180;2023-03-14T02:16:50;4.80;99.90
11284;DHT22;5698;47.332;11.180;2023-03-14T02:19:24;4.80;99.90
11284;DHT22;5698;47.332;11.180;2023-03-14T02:21:57;4.70;99.90
11284;DHT22;5698;47.332;11.180;2023-03-14T02:24:34;4.70;99.90
11284;DHT22;5698;47.332;11.180;2023-03-14T02:27:08;4.80;99.90
11284;DHT22;5698;47.332;11.180;2023-03-14T02:29:41;4.80;99.90
11284;DHT22;5698;47.332;11.180;2023-03-14T02:32:12;4.80;99.90
11284;DHT22;5698;47.332;11.180;2023-03-14T02:34:41;4.80;99.90
11284;DHT22;5698;47.332;11.180;2023-03-14T02:37:10;4.80;99.90
11284;DHT22;5698;47.332;11.180;2023-03-14T02:39:40;4.80;99.90
11284;DHT22;5698;47.332;11.180;2023-03-14T02:42:09;4.80;99.90
11284;DHT22;5698;47.332;11.180;2023-03-14T02:44:48;4.80;99.90
11284;DHT22;5698;47.332;11.180;2023-03-14T02:47:16;4.80;99.90
11284;DHT22;5698;47.332;11.180;2023-03-14T02:49:43;4.80;99.90
11284;DHT22;5698;47.332;11.180;2023-03-14T02:52:10;4.80;99.90
11284;DHT22;5698;47.332;11.180;2023-03-14T02:54:37;4.80;99.90
11284;DHT22;5698;47.332;11.180;2023-03-14T02:57:04;4.90;99.90
11284;DHT22;5698;47.332;11.180;2023-03-14T02:59:32;4.80;99.90
11284;DHT22;5698;47.332;11.180;2023-03-14T03:01:59;4.90;99.90
11284;DHT22;5698;47.332;11.180;2023-03-14T03:04:26;4.90;99.90
11284;DHT22;5698;47.332;11.180;2023-03-14T03:06:53;4.90;99.90
11284;DHT22;5698;47.332;11.180;2023-03-14T03:09:20;4.90;99.90
11284;DHT22;5698;47.332;11.180;2023-03-14T03:11:47;4.90;99.90
11284;DHT22;5698;47.332;11.180;2023-03-14T03:14:14;4.80;99.90
11284;DHT22;5698;47.332;11.180;2023-03-14T03:16:42;4.90;99.90
11284;DHT22;5698;47.332;11.180;2023-03-14T03:19:09;4.90;99.90
11284;DHT22;5698;47.332;11.180;2023-03-14T03:21:39;4.90;99.90
11284;DHT22;5698;47.332;11.180;2023-03-14T03:24:06;4.90;99.90
11284;DHT22;5698;47.332;11.180;2023-03-14T03:26:33;4.90;99.90
11284;DHT22;5698;47.332;11.180;2023-03-14T03:29:00;4.90;99.90
11284;DHT22;5698;47.332;11.180;2023-03-14T03:31:27;4.80;99.90
11284;DHT22;5698;47.332;11.180;2023-03-14T03:33:56;4.80;99.90
11284;DHT22;5698;47.332;11.180;2023-03-14T03:36:24;4.60;99.90
11284;DHT22;5698;47.332;11.180;2023-03-14T03:38:51;4.30;99.90
11284;DHT22;5698;47.332;11.180;2023-03-14T03:41:18;4.30;99.90
11284;DHT22;5698;47.332;11.180;2023-03-14T03:43:45;4.20;99.90
11284;DHT22;5698;47.332;11.180;2023-03-14T03:46:12;4.20;99.90
11284;DHT22;5698;47.332;11.180;2023-03-14T03:48:39;4.10;99.90
11284;DHT22;5698;47.332;11.180;2023-03-14T03:51:12;4.10;99.90
11284;DHT22;5698;47.332;11.180;2023-03-14T03:53:39;4.10;99.90
11284;DHT22;5698;47.332;11.180;2023-03-14T03:56:07;4.20;99.90
11284;DHT22;5698;47.332;11.180;2023-03-14T03:58:34;4.20;99.90
11284;DHT22;5698;47.332;11.180;2023-03-14T04:01:03;4.20;99.90
11284;DHT22;5698;47.332;11.180;2023-03-14T04:03:30;4.20;99.90
11284;DHT22;5698;47.332;11.180;2023-03-14T04:06:01;4.20;99.90
11284;DHT22;5698;47.332;11.180;2023-03-14T04:08:29;4.10;99.90
11284;DHT22;5698;47.332;11.180;2023-03-14T04:10:57;3.90;99.90
11284;DHT22;5698;47.332;11.180;2023-03-14T04:13:24;3.90;99.90
11284;DHT22;5698;47.332;11.180;2023-03-14T04:15:52;3.80;99.90
11284;DHT22;5698;47.332;11.180;2023-03-14T04:18:19;3.80;99.90
11284;DHT22;5698;47.332;11.180;2023-03-14T04:20:50;3.70;99.90
11284;DHT22;5698;47.332;11.180;2023-03-14T04:23:17;3.60;99.90
11284;DHT22;5698;47.332;11.180;2023-03-14T04:25:46;3.50;99.90
11284;DHT22;5698;47.332;11.180;2023-03-14T04:28:13;3.50;99.90
11284;DHT22;5698;47.332;11.180;2023-03-14T04:30:40;3.60;99.90
11284;DHT22;5698;47.332;11.180;2023-03-14T04:33:07;3.50;99.90
11284;DHT22;5698;47.332;11.180;2023-03-14T04:35:34;3.50;99.90
11284;DHT22;5698;47.332;11.180;2023-03-14T04:38:01;3.40;99.90
11284;DHT22;5698;47.332;11.180;2023-03-14T04:40:28;3.20;99.90
11284;DHT22;5698;47.332;11.180;2023-03-14T04:42:56;3.00;99.90
11284;DHT22;5698;47.332;11.180;2023-03-14T04:45:23;2.90;99.90
11284;DHT22;5698;47.332;11.180;2023-03-14T04:47:50;2.70;99.90
11284;DHT22;5698;47.332;11.180;2023-03-14T04:50:17;2.60;99.90
11284;DHT22;5698;47.332;11.180;2023-03-14T04:52:44;2.60;99.90
11284;DHT22;5698;47.332;11.180;2023-03-14T04:55:11;2.40;99.90
11284;DHT22;5698;47.332;11.180;2023-03-14T04:57:38;2.40;99.90
11284;DHT22;5698;47.332;11.180;2023-03-14T05:00:08;2.30;99.90
11284;DHT22;5698;47.332;11.180;2023-03-14T05:02:36;2.30;99.90
11284;DHT22;5698;47.332;11.180;2023-03-14T05:05:03;2.20;99.90
11284;DHT22;5698;47.332;11.180;2023-03-14T05:07:31;2.20;99.90
11284;DHT22;5698;47.332;11.180;2023-03-14T05:09:58;2.10;99.90
11284;DHT22;5698;47.332;11.180;2023-03-14T05:12:24;1.90;99.90
11284;DHT22;5698;47.332;11.180;2023-03-14T05:14:51;1.90;99.90
11284;DHT22;5698;47.332;11.180;2023-03-14T05:17:20;1.70;99.90
11284;DHT22;5698;47.332;11.180;2023-03-14T05:19:47;1.60;99.90
11284;DHT22;5698;47.332;11.180;2023-03-14T05:22:14;1.60;99.90
11284;DHT22;5698;47.332;11.180;2023-03-14T05:24:41;1.60;99.90
11284;DHT22;5698;47.332;11.180;2023-03-14T05:27:08;1.50;99.90
11284;DHT22;5698;47.332;11.180;2023-03-14T05:29:35;1.50;99.90
11284;DHT22;5698;47.332;11.180;2023-03-14T05:32:02;1.60;99.90
11284;DHT22;5698;47.332;11.180;2023-03-14T05:34:30;1.50;99.90
11284;DHT22;5698;47.332;11.180;2023-03-14T05:36:57;1.60;99.90
11284;DHT22;5698;47.332;11.180;2023-03-14T05:39:24;1.60;99.90
11284;DHT22;5698;47.332;11.180;2023-03-14T05:41:51;1.60;99.90
11284;DHT22;5698;47.332;11.180;2023-03-14T05:44:21;1.60;99.90
11284;DHT22;5698;47.332;11.180;2023-03-14T05:46:48;1.60;99.90
11284;DHT22;5698;47.332;11.180;2023-03-14T05:49:15;1.70;99.90
11284;DHT22;5698;47.332;11.180;2023-03-14T05:51:43;1.70;99.90
11284;DHT22;5698;47.332;11.180;2023-03-14T05:54:10;1.70;99.90
11284;DHT22;5698;47.332;11.180;2023-03-14T05:56:37;1.70;99.90
11284;DHT22;5698;47.332;11.180;2023-03-14T05:59:04;1.60;99.90
11284;DHT22;5698;47.332;11.180;2023-03-14T06:01:34;1.70;99.90
11284;DHT22;5698;47.332;11.180;2023-03-14T06:04:01;1.60;99.90
11284;DHT22;5698;47.332;11.180;2023-03-14T06:06:28;1.50;99.90
11284;DHT22;5698;47.332;11.180;2023-03-14T06:08:57;1.50;99.90
11284;DHT22;5698;47.332;11.180;2023-03-14T06:11:23;1.50;99.90
11284;DHT22;5698;47.332;11.180;2023-03-14T06:13:51;1.40;99.90
11284;DHT22;5698;47.332;11.180;2023-03-14T06:16:18;1.50;99.90
11284;DHT22;5698;47.332;11.180;2023-03-14T06:18:45;1.40;99.90
11284;DHT22;5698;47.332;11.180;2023-03-14T06:21:14;1.50;99.90
11284;DHT22;5698;47.332;11.180;2023-03-14T06:23:41;1.60;99.90
11284;DHT22;5698;47.332;11.180;2023-03-14T06:26:10;1.60;99.90
11284;DHT22;5698;47.332;11.180;2023-03-14T06:28:37;1.70;99.90
11284;DHT22;5698;47.332;11.180;2023-03-14T06:31:05;1.70;99.90
11284;DHT22;5698;47.332;11.180;2023-03-14T06:33:32;1.70;99.90
11284;DHT22;5698;47.332;11.180;2023-03-14T06:35:59;1.80;99.90
11284;DHT22;5698;47.332;11.180;2023-03-14T06:38:26;1.80;99.90
11284;DHT22;5698;47.332;11.180;2023-03-14T06:40:53;1.80;99.90
11284;DHT22;5698;47.332;11.180;2023-03-14T06:43:21;1.80;99.90
11284;DHT22;5698;47.332;11.180;2023-03-14T06:45:48;1.80;99.90
11284;DHT22;5698;47.332;11.180;2023-03-14T06:48:15;1.80;99.90
11284;DHT22;5698;47.332;11.180;2023-03-14T06:50:42;1.70;99.90
11284;DHT22;5698;47.332;11.180;2023-03-14T06:53:09;1.70;99.90
11284;DHT22;5698;47.332;11.180;2023-03-14T06:55:36;1.70;99.90
11284;DHT22;5698;47.332;11.180;2023-03-14T06:58:03;1.70;99.90
11284;DHT22;5698;47.332;11.180;2023-03-14T07:00:34;1.70;99.90
11284;DHT22;5698;47.332;11.180;2023-03-14T07:03:01;1.70;99.90
11284;DHT22;5698;47.332;11.180;2023-03-14T07:05:28;1.70;99.90
11284;DHT22;5698;47.332;11.180;2023-03-14T07:07:55;1.70;99.90
11284;DHT22;5698;47.332;11.180;2023-03-14T07:10:23;1.80;99.90
11284;DHT22;5698;47.332;11.180;2023-03-14T07:12:50;1.90;99.90
11284;DHT22;5698;47.332;11.180;2023-03-14T07:15:18;1.90;99.90
11284;DHT22;5698;47.332;11.180;2023-03-14T07:17:47;1.90;99.90
11284;DHT22;5698;47.332;11.180;2023-03-14T07:20:14;1.90;99.90
11284;DHT22;5698;47.332;11.180;2023-03-14T07:22:41;1.90;99.90
11284;DHT22;5698;47.332;11.180;2023-03-14T07:25:09;2.00;99.90
11284;DHT22;5698;47.332;11.180;2023-03-14T07:27:37;2.00;99.90
11284;DHT22;5698;47.332;11.180;2023-03-14T07:30:05;2.10;99.90
11284;DHT22;5698;47.332;11.180;2023-03-14T07:32:32;2.10;99.90
11284;DHT22;5698;47.332;11.180;2023-03-14T07:35:01;2.10;99.90
11284;DHT22;5698;47.332;11.180;2023-03-14T07:37:28;2.10;99.90
11284;DHT22;5698;47.332;11.180;2023-03-14T07:39:55;2.00;99.90
11284;DHT22;5698;47.332;11.180;2023-03-14T07:42:22;2.00;99.90
11284;DHT22;5698;47.332;11.180;2023-03-14T07:44:49;2.00;99.90
11284;DHT22;5698;47.332;11.180;2023-03-14T07:47:16;2.10;99.90
11284;DHT22;5698;47.332;11.180;2023-03-14T07:49:43;2.00;99.90
11284;DHT22;5698;47.332;11.180;2023-03-14T07:52:11;2.10;99.90
11284;DHT22;5698;47.332;11.180;2023-03-14T07:54:38;2.10;99.90
11284;DHT22;5698;47.332;11.180;2023-03-14T07:57:05;2.20;99.90
11284;DHT22;5698;47.332;11.180;2023-03-14T07:59:32;2.30;99.90
11284;DHT22;5698;47.332;11.180;2023-03-14T08:01:59;2.30;99.90
11284;DHT22;5698;47.332;11.180;2023-03-14T08:04:26;2.40;99.90
11284;DHT22;5698;47.332;11.180;2023-03-14T08:06:54;2.50;99.90
11284;DHT22;5698;47.332;11.180;2023-03-14T08:09:23;2.50;99.90
11284;DHT22;5698;47.332;11.180;2023-03-14T08:11:50;2.60;99.90
11284;DHT22;5698;47.332;11.180;2023-03-14T08:14:17;2.60;99.90
11284;DHT22;5698;47.332;11.180;2023-03-14T08:16:44;2.60;99.90
11284;DHT22;5698;47.332;11.180;2023-03-14T08:19:11;2.60;99.90
11284;DHT22;5698;47.332;11.180;2023-03-14T08:21:38;2.60;99.90
11284;DHT22;5698;47.332;11.180;2023-03-14T08:24:05;2.60;99.90
11284;DHT22;5698;47.332;11.180;2023-03-14T08:26:34;2.70;99.90
11284;DHT22;5698;47.332;11.180;2023-03-14T08:29:01;2.80;99.90
11284;DHT22;5698;47.332;11.180;2023-03-14T08:40:05;3.00;99.90
11284;DHT22;5698;47.332;11.180;2023-03-14T08:42:35;3.00;99.90
11284;DHT22;5698;47.332;11.180;2023-03-14T08:45:02;3.00;99.90
11284;DHT22;5698;47.332;11.180;2023-03-14T08:47:29;3.10;99.90
11284;DHT22;5698;47.332;11.180;2023-03-14T08:49:56;3.10;99.90
11284;DHT22;5698;47.332;11.180;2023-03-14T08:52:23;3.10;99.90
11284;DHT22;5698;47.332;11.180;2023-03-14T08:54:50;3.10;99.90
11284;DHT22;5698;47.332;11.180;2023-03-14T08:57:17;3.20;99.90
11284;DHT22;5698;47.332;11.180;2023-03-14T08:59:46;3.10;99.90
11284;DHT22;5698;47.332;11.180;2023-03-14T09:02:13;3.00;99.90
11284;DHT22;5698;47.332;11.180;2023-03-14T09:04:40;3.00;99.90
11284;DHT22;5698;47.332;11.180;2023-03-14T09:07:07;3.00;99.90
11284;DHT22;5698;47.332;11.180;2023-03-14T09:09:34;3.10;99.90
11284;DHT22;5698;47.332;11.180;2023-03-14T09:12:00;3.10;99.90
11284;DHT22;5698;47.332;11.180;2023-03-14T09:14:27;3.10;99.90
11284;DHT22;5698;47.332;11.180;2023-03-14T09:16:56;3.10;99.90
11284;DHT22;5698;47.332;11.180;2023-03-14T09:19:23;3.20;99.90
11284;DHT22;5698;47.332;11.180;2023-03-14T09:21:50;3.20;99.90
11284;DHT22;5698;47.332;11.180;2023-03-14T09:24:18;3.30;99.90
11284;DHT22;5698;47.332;11.180;2023-03-14T09:26:45;3.30;99.90
11284;DHT22;5698;47.332;11.180;2023-03-14T09:29:12;3.40;99.90
11284;DHT22;5698;47.332;11.180;2023-03-14T09:31:39;3.50;99.90
11284;DHT22;5698;47.332;11.180;2023-03-14T09:34:07;3.60;99.90
11284;DHT22;5698;47.332;11.180;2023-03-14T09:36:34;3.70;99.90
11284;DHT22;5698;47.332;11.180;2023-03-14T09:39:03;3.70;99.90
11284;DHT22;5698;47.332;11.180;2023-03-14T09:41:33;3.80;99.90
11284;DHT22;5698;47.332;11.180;2023-03-14T09:44:04;3.80;99.90
11284;DHT22;5698;47.332;11.180;2023-03-14T09:46:33;3.80;99.90
11284;DHT22;5698;47.332;11.180;2023-03-14T09:49:01;3.80;99.90
11284;DHT22;5698;47.332;11.180;2023-03-14T09:51:31;3.80;99.90
11284;DHT22;5698;47.332;11.180;2023-03-14T09:53:58;3.90;99.90
11284;DHT22;5698;47.332;11.180;2023-03-14T09:56:29;3.90;99.90
11284;DHT22;5698;47.332;11.180;2023-03-14T09:59:00;4.00;99.90
11284;DHT22;5698;47.332;11.180;2023-03-14T10:01:28;4.10;99.90
11284;DHT22;5698;47.332;11.180;2023-03-14T10:03:58;4.10;99.90
11284;DHT22;5698;47.332;11.180;2023-03-14T10:06:27;4.20;99.90
11284;DHT22;5698;47.332;11.180;2023-03-14T10:08:57;4.20;99.90
11284;DHT22;5698;47.332;11.180;2023-03-14T10:11:25;4.20;99.90
11284;DHT22;5698;47.332;11.180;2023-03-14T10:14:05;4.30;99.90
11284;DHT22;5698;47.332;11.180;2023-03-14T10:16:34;4.30;99.90
11284;DHT22;5698;47.332;11.180;2023-03-14T10:19:03;4.30;99.90
11284;DHT22;5698;47.332;11.180;2023-03-14T10:21:36;4.40;99.90
11284;DHT22;5698;47.332;11.180;2023-03-14T10:24:20;4.60;99.90
11284;DHT22;5698;47.332;11.180;2023-03-14T10:26:52;4.80;99.90
11284;DHT22;5698;47.332;11.180;2023-03-14T10:29:20;5.00;99.90
11284;DHT22;5698;47.332;11.180;2023-03-14T10:31:51;5.50;99.90
11284;DHT22;5698;47.332;11.180;2023-03-14T10:34:23;5.90;99.90
11284;DHT22;5698;47.332;11.180;2023-03-14T10:36:53;6.30;99.90
11284;DHT22;5698;47.332;11.180;2023-03-14T10:39:33;6.90;99.90
11284;DHT22;5698;47.332;11.180;2023-03-14T10:42:06;7.60;99.90
11284;DHT22;5698;47.332;11.180;2023-03-14T10:44:39;8.40;99.90
11284;DHT22;5698;47.332;11.180;2023-03-14T10:47:12;9.00;99.90
11284;DHT22;5698;47.332;11.180;2023-03-14T10:49:41;9.30;99.90
11284;DHT22;5698;47.332;11.180;2023-03-14T10:52:15;9.10;99.90
11284;DHT22;5698;47.332;11.180;2023-03-14T10:54:47;9.00;99.90
11284;DHT22;5698;47.332;11.180;2023-03-14T10:57:14;9.00;99.90
11284;DHT22;5698;47.332;11.180;2023-03-14T10:59:42;9.10;99.90
11284;DHT22;5698;47.332;11.180;2023-03-14T11:02:28;8.70;99.90
11284;DHT22;5698;47.332;11.180;2023-03-14T11:05:04;8.60;99.90
11284;DHT22;5698;47.332;11.180;2023-03-14T11:07:38;8.60;99.90
11284;DHT22;5698;47.332;11.180;2023-03-14T11:10:14;8.50;99.90
11284;DHT22;5698;47.332;11.180;2023-03-14T11:12:53;8.60;99.90
11284;DHT22;5698;47.332;11.180;2023-03-14T11:15:25;8.70;99.90
11284;DHT22;5698;47.332;11.180;2023-03-14T11:18:11;8.50;99.90
11284;DHT22;5698;47.332;11.180;2023-03-14T11:20:44;8.60;99.90
11284;DHT22;5698;47.332;11.180;2023-03-14T11:23:16;8.80;99.90
11284;DHT22;5698;47.332;11.180;2023-03-14T11:25:52;9.00;99.90
11284;DHT22;5698;47.332;11.180;2023-03-14T11:28:26;8.60;99.90
11284;DHT22;5698;47.332;11.180;2023-03-14T11:31:02;8.60;99.90
11284;DHT22;5698;47.332;11.180;2023-03-14T11:33:37;8.70;99.90
11284;DHT22;5698;47.332;11.180;2023-03-14T11:36:07;8.80;99.90
11284;DHT22;5698;47.332;11.180;2023-03-14T11:38:37;8.70;99.90
11284;DHT22;5698;47.332;11.180;2023-03-14T11:41:11;8.50;99.90
11284;DHT22;5698;47.332;11.180;2023-03-14T11:43:40;8.00;99.90
11284;DHT22;5698;47.332;11.180;2023-03-14T11:46:12;7.80;99.90
11284;DHT22;5698;47.332;11.180;2023-03-14T11:48:45;7.90;99.90
11284;DHT22;5698;47.332;11.180;2023-03-14T11:51:21;8.10;99.90
11284;DHT22;5698;47.332;11.180;2023-03-14T11:53:55;8.30;99.90
11284;DHT22;5698;47.332;11.180;2023-03-14T11:56:31;8.50;99.90
11284;DHT22;5698;47.332;11.180;2023-03-14T11:59:03;8.50;99.90
11284;DHT22;5698;47.332;11.180;2023-03-14T12:01:40;8.60;99.90
11284;DHT22;5698;47.332;11.180;2023-03-14T12:04:15;8.70;99.90
11284;DHT22;5698;47.332;11.180;2023-03-14T12:06:48;8.80;99.90
11284;DHT22;5698;47.332;11.180;2023-03-14T12:09:16;9.00;99.90
11284;DHT22;5698;47.332;11.180;2023-03-14T12:11:48;9.10;99.90
11284;DHT22;5698;47.332;11.180;2023-03-14T12:14:21;9.10;99.90
11284;DHT22;5698;47.332;11.180;2023-03-14T12:16:49;9.10;99.90
11284;DHT22;5698;47.332;11.180;2023-03-14T12:19:28;9.10;99.90
11284;DHT22;5698;47.332;11.180;2023-03-14T12:21:58;9.10;99.90
11284;DHT22;5698;47.332;11.180;2023-03-14T12:24:28;9.10;99.90
11284;DHT22;5698;47.332;11.180;2023-03-14T12:26:59;8.90;99.90
11284;DHT22;5698;47.332;11.180;2023-03-14T12:29:27;8.70;99.90
11284;DHT22;5698;47.332;11.180;2023-03-14T12:32:09;8.40;99.90
11284;DHT22;5698;47.332;11.180;2023-03-14T12:34:47;8.40;99.90
11284;DHT22;5698;47.332;11.180;2023-03-14T12:37:27;8.30;99.90
11284;DHT22;5698;47.332;11.180;2023-03-14T12:40:06;8.20;99.90
11284;DHT22;5698;47.332;11.180;2023-03-14T12:42:45;8.30;99.90
11284;DHT22;5698;47.332;11.180;2023-03-14T12:45:25;8.30;99.90
11284;DHT22;5698;47.332;11.180;2023-03-14T12:50:44;8.40;99.90
11284;DHT22;5698;47.332;11.180;2023-03-14T12:53:36;8.40;99.90
11284;DHT22;5698;47.332;11.180;2023-03-14T12:56:22;8.70;99.90
11284;DHT22;5698;47.332;11.180;2023-03-14T12:59:02;8.60;99.90
11284;DHT22;5698;47.332;11.180;2023-03-14T13:01:33;8.70;99.90
11284;DHT22;5698;47.332;11.180;2023-03-14T13:04:07;9.00;99.90
11284;DHT22;5698;47.332;11.180;2023-03-14T13:06:50;9.20;99.90
11284;DHT22;5698;47.332;11.180;2023-03-14T13:12:19;9.70;99.90
11284;DHT22;5698;47.332;11.180;2023-03-14T13:14:51;9.80;99.90
11284;DHT22;5698;47.332;11.180;2023-03-14T13:17:23;9.90;99.90
11284;DHT22;5698;47.332;11.180;2023-03-14T13:19:53;10.00;99.90
11284;DHT22;5698;47.332;11.180;2023-03-14T13:22:24;10.10;99.90
11284;DHT22;5698;47.332;11.180;2023-03-14T13:24:59;10.10;99.90
11284;DHT22;5698;47.332;11.180;2023-03-14T13:27:29;10.00;99.90
11284;DHT22;5698;47.332;11.180;2023-03-14T13:29:58;10.00;99.90
11284;DHT22;5698;47.332;11.180;2023-03-14T13:32:27;9.50;99.90
11284;DHT22;5698;47.332;11.180;2023-03-14T13:34:56;9.40;99.90
11284;DHT22;5698;47.332;11.180;2023-03-14T13:37:24;9.30;99.90
11284;DHT22;5698;47.332;11.180;2023-03-14T13:39:54;8.40;99.90
11284;DHT22;5698;47.332;11.180;2023-03-14T13:42:25;8.00;99.90
11284;DHT22;5698;47.332;11.180;2023-03-14T13:44:53;8.10;99.90
11284;DHT22;5698;47.332;11.180;2023-03-14T13:47:24;8.10;99.90
11284;DHT22;5698;47.332;11.180;2023-03-14T13:49:52;7.90;99.90
11284;DHT22;5698;47.332;11.180;2023-03-14T13:52:29;7.70;99.90
11284;DHT22;5698;47.332;11.180;2023-03-14T13:54:57;7.50;99.90
11284;DHT22;5698;47.332;11.180;2023-03-14T13:57:25;7.70;99.90
11284;DHT22;5698;47.332;11.180;2023-03-14T14:00:00;7.80;99.90
11284;DHT22;5698;47.332;11.180;2023-03-14T14:02:35;8.00;99.90
11284;DHT22;5698;47.332;11.180;2023-03-14T14:05:03;8.00;99.90
11284;DHT22;5698;47.332;11.180;2023-03-14T14:07:30;8.00;99.90
11284;DHT22;5698;47.332;11.180;2023-03-14T14:09:58;8.10;99.90
11284;DHT22;5698;47.332;11.180;2023-03-14T14:12:28;8.00;99.90
11284;DHT22;5698;47.332;11.180;2023-03-14T14:14:58;7.90;99.90
11284;DHT22;5698;47.332;11.180;2023-03-14T14:17:30;7.60;99.90
11284;DHT22;5698;47.332;11.180;2023-03-14T14:20:00;7.30;99.90
11284;DHT22;5698;47.332;11.180;2023-03-14T14:22:29;6.80;99.90
11284;DHT22;5698;47.332;11.180;2023-03-14T14:24:57;6.60;99.90
11284;DHT22;5698;47.332;11.180;2023-03-14T14:27:28;6.30;99.90
11284;DHT22;5698;47.332;11.180;2023-03-14T14:29:59;6.10;99.90
11284;DHT22;5698;47.332;11.180;2023-03-14T14:32:26;6.20;99.90
11284;DHT22;5698;47.332;11.180;2023-03-14T14:34:59;5.70;99.90
11284;DHT22;5698;47.332;11.180;2023-03-14T14:37:27;5.60;99.90
11284;DHT22;5698;47.332;11.180;2023-03-14T14:39:57;5.30;99.90
11284;DHT22;5698;47.332;11.180;2023-03-14T14:42:26;5.20;99.90
11284;DHT22;5698;47.332;11.180;2023-03-14T14:44:55;4.90;99.90
11284;DHT22;5698;47.332;11.180;2023-03-14T14:47:23;4.70;99.90
11284;DHT22;5698;47.332;11.180;2023-03-14T14:49:52;4.60;99.90
11284;DHT22;5698;47.332;11.180;2023-03-14T14:52:31;4.60;99.90
11284;DHT22;5698;47.332;11.180;2023-03-14T14:55:00;4.40;99.90
11284;DHT22;5698;47.332;11.180;2023-03-14T14:57:30;4.20;99.90
11284;DHT22;5698;47.332;11.180;2023-03-14T15:00:03;4.30;99.90
11284;DHT22;5698;47.332;11.180;2023-03-14T15:02:36;4.20;99.90
11284;DHT22;5698;47.332;11.180;2023-03-14T15:05:08;4.20;99.90
11284;DHT22;5698;47.332;11.180;2023-03-14T15:07:39;4.20;99.90
11284;DHT22;5698;47.332;11.180;2023-03-14T15:10:10;4.20;99.90
11284;DHT22;5698;47.332;11.180;2023-03-14T15:12:37;4.30;99.90
11284;DHT22;5698;47.332;11.180;2023-03-14T15:15:05;4.40;99.90
11284;DHT22;5698;47.332;11.180;2023-03-14T15:17:32;4.50;99.90
11284;DHT22;5698;47.332;11.180;2023-03-14T15:19:59;4.50;99.90
11284;DHT22;5698;47.332;11.180;2023-03-14T15:22:26;4.60;99.90
11284;DHT22;5698;47.332;11.180;2023-03-14T15:24:54;4.70;99.90
11284;DHT22;5698;47.332;11.180;2023-03-14T15:27:21;4.80;99.90
11284;DHT22;5698;47.332;11.180;2023-03-14T15:29:49;4.70;99.90
11284;DHT22;5698;47.332;11.180;2023-03-14T15:32:16;4.60;99.90
11284;DHT22;5698;47.332;11.180;2023-03-14T15:34:43;4.50;99.90
11284;DHT22;5698;47.332;11.180;2023-03-14T15:37:12;4.50;99.90
11284;DHT22;5698;47.332;11.180;2023-03-14T15:39:39;4.40;99.90
11284;DHT22;5698;47.332;11.180;2023-03-14T15:42:08;4.20;99.90
11284;DHT22;5698;47.332;11.180;2023-03-14T15:44:35;4.00;99.90
11284;DHT22;5698;47.332;11.180;2023-03-14T15:47:02;4.10;99.90
11284;DHT22;5698;47.332;11.180;2023-03-14T15:49:29;4.20;99.90
11284;DHT22;5698;47.332;11.180;2023-03-14T15:51:56;4.10;99.90
11284;DHT22;5698;47.332;11.180;2023-03-14T15:54:23;4.00;99.90
11284;DHT22;5698;47.332;11.180;2023-03-14T15:56:53;3.90;99.90
11284;DHT22;5698;47.332;11.180;2023-03-14T15:59:22;3.80;99.90
11284;DHT22;5698;47.332;11.180;2023-03-14T16:01:49;3.80;99.90
11284;DHT22;5698;47.332;11.180;2023-03-14T16:04:16;3.80;99.90
11284;DHT22;5698;47.332;11.180;2023-03-14T16:06:44;3.70;99.90
11284;DHT22;5698;47.332;11.180;2023-03-14T16:09:11;3.60;99.90
11284;DHT22;5698;47.332;11.180;2023-03-14T16:11:38;3.50;99.90